sensor_id;sensor_type;location;lat;lon;timestamp;P1;durP1;ratioP1;P2;durP2;ratioP2
9384;SDS011;4732;49.340;10.886;2023-08-17T03:06:54;12.07;;;8.60;;
9384;SDS011;4732;49.340;10.886;2023-08-17T03:09:20;10.77;;;8.35;;
9384;SDS011;4732;49.340;10.886;2023-08-17T03:11:45;8.60;;;7.85;;
9384;SDS011;4732;49.340;10.886;2023-08-17T03:14:11;10.10;;;8.07;;
9384;SDS011;4732;49.340;10.886;2023-08-17T03:16:37;9.23;;;8.02;;
9384;SDS011;4732;49.340;10.886;2023-08-17T03:19:03;10.55;;;8.05;;
9384;SDS011;4732;49.340;10.886;2023-08-17T03:21:29;8.60;;;7.22;;
9384;SDS011;4732;49.340;10.886;2023-08-17T03:23:56;8.23;;;7.53;;
9384;SDS011;4732;49.340;10.886;2023-08-17T03:26:21;8.30;;;7.10;;
9384;SDS011;4732;49.340;10.886;2023-08-17T03:28:47;8.93;;;8.00;;
9384;SDS011;4732;49.340;10.886;2023-08-17T03:31:12;7.93;;;7.22;;
9384;SDS011;4732;49.340;10.886;2023-08-17T03:33:38;8.52;;;7.68;;
9384;SDS011;4732;49.340;10.886;2023-08-17T03:36:05;7.90;;;7.20;;
9384;SDS011;4732;49.340;10.886;2023-08-17T03:38:31;8.18;;;7.38;;
9384;SDS011;4732;49.340;10.886;2023-08-17T03:40:57;8.30;;;7.45;;
9384;SDS011;4732;49.340;10.886;2023-08-17T03:43:22;8.18;;;7.30;;
9384;SDS011;4732;49.340;10.886;2023-08-17T03:45:48;8.95;;;7.03;;
9384;SDS011;4732;49.340;10.886;2023-08-17T03:48:15;9.02;;;7.75;;
9384;SDS011;4732;49.340;10.886;2023-08-17T03:50:40;8.10;;;7.40;;
9384;SDS011;4732;49.340;10.886;2023-08-17T03:53:06;8.07;;;7.28;;
9384;SDS011;4732;49.340;10.886;2023-08-17T03:55:32;7.88;;;7.18;;
9384;SDS011;4732;49.340;10.886;2023-08-17T03:57:57;9.15;;;8.25;;
9384;SDS011;4732;49.340;10.886;2023-08-17T04:00:23;9.85;;;7.28;;
9384;SDS011;4732;49.340;10.886;2023-08-17T04:02:49;8.70;;;7.88;;
9384;SDS011;4732;49.340;10.886;2023-08-17T04:05:14;8.32;;;7.53;;
9384;SDS011;4732;49.340;10.886;2023-08-17T04:07:40;7.43;;;6.75;;
9384;SDS011;4732;49.340;10.886;2023-08-17T04:10:06;9.52;;;6.95;;
9384;SDS011;4732;49.340;10.886;2023-08-17T04:12:32;7.15;;;6.20;;
9384;SDS011;4732;49.340;10.886;2023-08-17T04:14:58;7.95;;;7.15;;
9384;SDS011;4732;49.340;10.886;2023-08-17T04:17:24;10.60;;;6.70;;
9384;SDS011;4732;49.340;10.886;2023-08-17T04:19:50;7.85;;;6.53;;
9384;SDS011;4732;49.340;10.886;2023-08-17T04:22:15;8.40;;;7.47;;
9384;SDS011;4732;49.340;10.886;2023-08-17T04:24:41;10.73;;;7.15;;
9384;SDS011;4732;49.340;10.886;2023-08-17T04:27:07;8.45;;;7.57;;
9384;SDS011;4732;49.340;10.886;2023-08-17T04:29:33;13.35;;;6.50;;
9384;SDS011;4732;49.340;10.886;2023-08-17T04:32:00;7.25;;;6.55;;
9384;SDS011;4732;49.340;10.886;2023-08-17T04:34:26;7.30;;;6.60;;
9384;SDS011;4732;49.340;10.886;2023-08-17T04:36:51;7.68;;;6.28;;
9384;SDS011;4732;49.340;10.886;2023-08-17T04:39:17;10.02;;;6.72;;
9384;SDS011;4732;49.340;10.886;2023-08-17T04:41:43;8.60;;;6.53;;
9384;SDS011;4732;49.340;10.886;2023-08-17T04:44:08;7.70;;;6.95;;
9384;SDS011;4732;49.340;10.886;2023-08-17T04:46:35;7.90;;;7.20;;
9384;SDS011;4732;49.340;10.886;2023-08-17T04:49:01;10.32;;;7.43;;
9384;SDS011;4732;49.340;10.886;2023-08-17T04:51:28;8.00;;;6.60;;
9384;SDS011;4732;49.340;10.886;2023-08-17T04:53:54;8.05;;;7.28;;
9384;SDS011;4732;49.340;10.886;2023-08-17T04:56:20;8.48;;;7.57;;
9384;SDS011;4732;49.340;10.886;2023-08-17T04:58:46;7.97;;;7.28;;
9384;SDS011;4732;49.340;10.886;2023-08-17T05:01:12;7.90;;;7.20;;
9384;SDS011;4732;49.340;10.886;2023-08-17T05:03:38;8.13;;;7.07;;
9384;SDS011;4732;49.340;10.886;2023-08-17T05:06:05;8.30;;;7.50;;
9384;SDS011;4732;49.340;10.886;2023-08-17T05:08:31;9.88;;;7.30;;
9384;SDS011;4732;49.340;10.886;2023-08-17T05:10:57;8.52;;;7.75;;
9384;SDS011;4732;49.340;10.886;2023-08-17T05:13:26;11.13;;;7.82;;
9384;SDS011;4732;49.340;10.886;2023-08-17T05:15:52;10.80;;;7.68;;
9384;SDS011;4732;49.340;10.886;2023-08-17T05:18:18;9.15;;;8.27;;
9384;SDS011;4732;49.340;10.886;2023-08-17T05:20:46;7.95;;;7.28;;
9384;SDS011;4732;49.340;10.886;2023-08-17T05:23:12;10.57;;;7.55;;
9384;SDS011;4732;49.340;10.886;2023-08-17T05:25:40;8.95;;;7.93;;
9384;SDS011;4732;49.340;10.886;2023-08-17T05:28:06;9.25;;;7.22;;
9384;SDS011;4732;49.340;10.886;2023-08-17T05:30:33;8.20;;;7.50;;
9384;SDS011;4732;49.340;10.886;2023-08-17T05:33:03;8.20;;;7.35;;
9384;SDS011;4732;49.340;10.886;2023-08-17T05:35:32;8.90;;;8.00;;
9384;SDS011;4732;49.340;10.886;2023-08-17T05:37:58;10.10;;;9.18;;
9384;SDS011;4732;49.340;10.886;2023-08-17T05:40:42;12.70;;;10.50;;
9384;SDS011;4732;49.340;10.886;2023-08-17T05:43:07;10.40;;;9.30;;
9384;SDS011;4732;49.340;10.886;2023-08-17T05:45:33;9.82;;;8.77;;
9384;SDS011;4732;49.340;10.886;2023-08-17T05:48:02;8.88;;;8.07;;
9384;SDS011;4732;49.340;10.886;2023-08-17T05:50:29;8.32;;;7.53;;
9384;SDS011;4732;49.340;10.886;2023-08-17T05:52:55;8.32;;;7.53;;
9384;SDS011;4732;49.340;10.886;2023-08-17T05:55:22;8.30;;;7.50;;
9384;SDS011;4732;49.340;10.886;2023-08-17T05:57:48;8.88;;;7.72;;
9384;SDS011;4732;49.340;10.886;2023-08-17T06:00:14;11.55;;;9.65;;
9384;SDS011;4732;49.340;10.886;2023-08-17T06:02:42;9.73;;;8.82;;
9384;SDS011;4732;49.340;10.886;2023-08-17T06:05:08;9.15;;;8.25;;
9384;SDS011;4732;49.340;10.886;2023-08-17T06:07:34;9.82;;;7.70;;
9384;SDS011;4732;49.340;10.886;2023-08-17T06:10:04;9.48;;;8.60;;
9384;SDS011;4732;49.340;10.886;2023-08-17T06:12:32;9.77;;;8.88;;
9384;SDS011;4732;49.340;10.886;2023-08-17T06:14:58;14.35;;;10.00;;
9384;SDS011;4732;49.340;10.886;2023-08-17T06:17:24;11.63;;;9.23;;
9384;SDS011;4732;49.340;10.886;2023-08-17T06:19:50;9.15;;;8.10;;
9384;SDS011;4732;49.340;10.886;2023-08-17T06:37:47;10.02;;;8.60;;
9384;SDS011;4732;49.340;10.886;2023-08-17T06:40:13;9.55;;;8.65;;
9384;SDS011;4732;49.340;10.886;2023-08-17T06:42:38;12.32;;;8.93;;
9384;SDS011;4732;49.340;10.886;2023-08-17T06:45:04;9.85;;;8.80;;
9384;SDS011;4732;49.340;10.886;2023-08-17T06:47:31;12.60;;;9.43;;
9384;SDS011;4732;49.340;10.886;2023-08-17T06:49:57;9.60;;;8.35;;
9384;SDS011;4732;49.340;10.886;2023-08-17T06:52:23;14.77;;;9.35;;
9384;SDS011;4732;49.340;10.886;2023-08-17T06:54:49;11.32;;;7.72;;
9384;SDS011;4732;49.340;10.886;2023-08-17T06:57:18;14.55;;;9.50;;
9384;SDS011;4732;49.340;10.886;2023-08-17T06:59:47;8.65;;;7.82;;
9384;SDS011;4732;49.340;10.886;2023-08-17T07:02:13;9.82;;;8.93;;
9384;SDS011;4732;49.340;10.886;2023-08-17T07:05:17;10.43;;;8.55;;
9384;SDS011;4732;49.340;10.886;2023-08-17T07:07:47;12.18;;;9.10;;
9384;SDS011;4732;49.340;10.886;2023-08-17T07:10:17;10.73;;;8.90;;
9384;SDS011;4732;49.340;10.886;2023-08-17T07:12:44;10.82;;;8.57;;
9384;SDS011;4732;49.340;10.886;2023-08-17T07:15:10;10.43;;;9.43;;
9384;SDS011;4732;49.340;10.886;2023-08-17T07:17:36;13.45;;;9.70;;
9384;SDS011;4732;49.340;10.886;2023-08-17T07:20:02;9.70;;;8.80;;
9384;SDS011;4732;49.340;10.886;2023-08-17T07:22:28;9.98;;;8.32;;
9384;SDS011;4732;49.340;10.886;2023-08-17T07:24:54;10.75;;;9.18;;
9384;SDS011;4732;49.340;10.886;2023-08-17T07:27:19;9.77;;;8.52;;
9384;SDS011;4732;49.340;10.886;2023-08-17T07:29:45;10.48;;;9.30;;
9384;SDS011;4732;49.340;10.886;2023-08-17T07:32:13;11.38;;;9.40;;
9384;SDS011;4732;49.340;10.886;2023-08-17T07:34:39;12.32;;;9.52;;
9384;SDS011;4732;49.340;10.886;2023-08-17T07:37:04;11.27;;;9.27;;
9384;SDS011;4732;49.340;10.886;2023-08-17T07:39:31;9.15;;;8.25;;
9384;SDS011;4732;49.340;10.886;2023-08-17T07:41:56;8.80;;;8.00;;
9384;SDS011;4732;49.340;10.886;2023-08-17T07:44:22;10.35;;;8.30;;
9384;SDS011;4732;49.340;10.886;2023-08-17T07:46:47;8.50;;;7.70;;
9384;SDS011;4732;49.340;10.886;2023-08-17T07:49:13;11.18;;;8.68;;
9384;SDS011;4732;49.340;10.886;2023-08-17T07:51:39;9.20;;;8.30;;
9384;SDS011;4732;49.340;10.886;2023-08-17T07:54:04;9.80;;;8.90;;
9384;SDS011;4732;49.340;10.886;2023-08-17T07:56:30;9.75;;;8.80;;
9384;SDS011;4732;49.340;10.886;2023-08-17T07:58:55;9.20;;;8.13;;
9384;SDS011;4732;49.340;10.886;2023-08-17T08:01:21;9.65;;;8.18;;
9384;SDS011;4732;49.340;10.886;2023-08-17T08:03:46;9.30;;;8.40;;
9384;SDS011;4732;49.340;10.886;2023-08-17T08:06:12;7.80;;;7.00;;
9384;SDS011;4732;49.340;10.886;2023-08-17T08:08:38;9.27;;;8.35;;
9384;SDS011;4732;49.340;10.886;2023-08-17T08:11:04;11.55;;;8.73;;
9384;SDS011;4732;49.340;10.886;2023-08-17T08:13:30;9.05;;;8.15;;
9384;SDS011;4732;49.340;10.886;2023-08-17T08:15:57;9.15;;;8.27;;
9384;SDS011;4732;49.340;10.886;2023-08-17T08:18:23;10.30;;;9.25;;
9384;SDS011;4732;49.340;10.886;2023-08-17T08:20:49;9.35;;;8.48;;
9384;SDS011;4732;49.340;10.886;2023-08-17T08:23:14;10.50;;;8.70;;
9384;SDS011;4732;49.340;10.886;2023-08-17T08:25:40;9.15;;;8.13;;
9384;SDS011;4732;49.340;10.886;2023-08-17T08:28:06;10.23;;;8.68;;
9384;SDS011;4732;49.340;10.886;2023-08-17T08:30:31;10.43;;;8.30;;
9384;SDS011;4732;49.340;10.886;2023-08-17T08:32:57;11.05;;;8.18;;
9384;SDS011;4732;49.340;10.886;2023-08-17T08:35:24;11.13;;;8.25;;
9384;SDS011;4732;49.340;10.886;2023-08-17T08:37:49;9.30;;;8.40;;
9384;SDS011;4732;49.340;10.886;2023-08-17T08:40:15;10.13;;;7.50;;
9384;SDS011;4732;49.340;10.886;2023-08-17T08:42:42;9.10;;;8.15;;
9384;SDS011;4732;49.340;10.886;2023-08-17T08:45:09;11.95;;;8.40;;
9384;SDS011;4732;49.340;10.886;2023-08-17T08:47:36;9.05;;;8.25;;
9384;SDS011;4732;49.340;10.886;2023-08-17T08:50:03;11.32;;;8.73;;
9384;SDS011;4732;49.340;10.886;2023-08-17T08:52:38;11.02;;;8.25;;
9384;SDS011;4732;49.340;10.886;2023-08-17T08:55:11;9.07;;;8.07;;
9384;SDS011;4732;49.340;10.886;2023-08-17T08:57:40;11.95;;;7.78;;
9384;SDS011;4732;49.340;10.886;2023-08-17T09:00:08;8.73;;;7.85;;
9384;SDS011;4732;49.340;10.886;2023-08-17T09:02:36;8.80;;;7.90;;
9384;SDS011;4732;49.340;10.886;2023-08-17T09:05:04;8.45;;;6.97;;
9384;SDS011;4732;49.340;10.886;2023-08-17T09:07:31;7.90;;;7.20;;
9384;SDS011;4732;49.340;10.886;2023-08-17T09:09:58;7.63;;;6.85;;
9384;SDS011;4732;49.340;10.886;2023-08-17T09:12:24;6.97;;;6.40;;
9384;SDS011;4732;49.340;10.886;2023-08-17T09:14:50;7.13;;;6.53;;
9384;SDS011;4732;49.340;10.886;2023-08-17T09:17:25;7.70;;;6.70;;
9384;SDS011;4732;49.340;10.886;2023-08-17T09:19:56;8.18;;;7.15;;
9384;SDS011;4732;49.340;10.886;2023-08-17T09:22:23;7.20;;;6.32;;
9384;SDS011;4732;49.340;10.886;2023-08-17T09:25:05;7.45;;;6.85;;
9384;SDS011;4732;49.340;10.886;2023-08-17T09:27:31;7.88;;;6.50;;
9384;SDS011;4732;49.340;10.886;2023-08-17T09:30:01;7.85;;;7.05;;
9384;SDS011;4732;49.340;10.886;2023-08-17T09:32:30;8.57;;;6.72;;
9384;SDS011;4732;49.340;10.886;2023-08-17T09:34:57;7.57;;;6.65;;
9384;SDS011;4732;49.340;10.886;2023-08-17T09:37:22;7.35;;;6.70;;
9384;SDS011;4732;49.340;10.886;2023-08-17T09:39:48;7.35;;;6.68;;
9384;SDS011;4732;49.340;10.886;2023-08-17T09:42:14;7.47;;;6.70;;
9384;SDS011;4732;49.340;10.886;2023-08-17T09:44:42;6.90;;;6.30;;
9384;SDS011;4732;49.340;10.886;2023-08-17T09:47:09;8.43;;;6.55;;
9384;SDS011;4732;49.340;10.886;2023-08-17T09:49:35;10.38;;;7.43;;
9384;SDS011;4732;49.340;10.886;2023-08-17T09:52:01;8.23;;;6.80;;
9384;SDS011;4732;49.340;10.886;2023-08-17T09:54:27;7.95;;;7.10;;
9384;SDS011;4732;49.340;10.886;2023-08-17T09:56:55;8.43;;;6.93;;
9384;SDS011;4732;49.340;10.886;2023-08-17T09:59:22;8.60;;;7.10;;
9384;SDS011;4732;49.340;10.886;2023-08-17T10:01:49;8.07;;;6.55;;
9384;SDS011;4732;49.340;10.886;2023-08-17T10:04:16;13.18;;;9.85;;
9384;SDS011;4732;49.340;10.886;2023-08-17T10:06:48;8.68;;;6.63;;
9384;SDS011;4732;49.340;10.886;2023-08-17T10:09:24;7.90;;;7.13;;
9384;SDS011;4732;49.340;10.886;2023-08-17T10:12:06;11.30;;;6.90;;
9384;SDS011;4732;49.340;10.886;2023-08-17T10:14:36;6.85;;;6.15;;
9384;SDS011;4732;49.340;10.886;2023-08-17T10:17:11;7.68;;;6.88;;
9384;SDS011;4732;49.340;10.886;2023-08-17T10:19:43;8.52;;;6.60;;
9384;SDS011;4732;49.340;10.886;2023-08-17T10:22:23;11.25;;;6.53;;
9384;SDS011;4732;49.340;10.886;2023-08-17T10:25:16;7.10;;;6.18;;
9384;SDS011;4732;49.340;10.886;2023-08-17T10:27:43;6.50;;;5.90;;
9384;SDS011;4732;49.340;10.886;2023-08-17T10:30:09;7.03;;;6.32;;
9384;SDS011;4732;49.340;10.886;2023-08-17T10:32:35;7.22;;;6.60;;
9384;SDS011;4732;49.340;10.886;2023-08-17T10:35:01;7.07;;;5.95;;
9384;SDS011;4732;49.340;10.886;2023-08-17T10:37:28;6.40;;;5.88;;
9384;SDS011;4732;49.340;10.886;2023-08-17T10:39:55;9.18;;;6.25;;
9384;SDS011;4732;49.340;10.886;2023-08-17T10:42:30;6.50;;;5.90;;
9384;SDS011;4732;49.340;10.886;2023-08-17T10:44:58;6.68;;;6.07;;
9384;SDS011;4732;49.340;10.886;2023-08-17T10:47:28;6.53;;;5.95;;
9384;SDS011;4732;49.340;10.886;2023-08-17T10:49:59;9.57;;;6.32;;
9384;SDS011;4732;49.340;10.886;2023-08-17T10:52:35;7.18;;;6.30;;
9384;SDS011;4732;49.340;10.886;2023-08-17T10:55:03;6.88;;;6.28;;
9384;SDS011;4732;49.340;10.886;2023-08-17T11:05:34;8.05;;;6.28;;
9384;SDS011;4732;49.340;10.886;2023-08-17T11:10:57;6.68;;;6.07;;
9384;SDS011;4732;49.340;10.886;2023-08-17T11:13:24;6.68;;;6.03;;
9384;SDS011;4732;49.340;10.886;2023-08-17T11:15:52;9.05;;;6.43;;
9384;SDS011;4732;49.340;10.886;2023-08-17T11:18:17;6.20;;;5.55;;
9384;SDS011;4732;49.340;10.886;2023-08-17T11:20:43;7.28;;;5.97;;
9384;SDS011;4732;49.340;10.886;2023-08-17T11:23:09;8.27;;;6.38;;
9384;SDS011;4732;49.340;10.886;2023-08-17T11:25:35;6.75;;;6.05;;
9384;SDS011;4732;49.340;10.886;2023-08-17T11:28:02;7.00;;;6.30;;
9384;SDS011;4732;49.340;10.886;2023-08-17T11:30:29;9.40;;;6.38;;
9384;SDS011;4732;49.340;10.886;2023-08-17T11:32:55;7.65;;;6.13;;
9384;SDS011;4732;49.340;10.886;2023-08-17T11:35:21;6.25;;;5.68;;
9384;SDS011;4732;49.340;10.886;2023-08-17T11:37:47;8.00;;;6.85;;
9384;SDS011;4732;49.340;10.886;2023-08-17T11:40:13;7.28;;;6.55;;
9384;SDS011;4732;49.340;10.886;2023-08-17T11:42:40;6.75;;;6.18;;
9384;SDS011;4732;49.340;10.886;2023-08-17T11:45:06;7.82;;;6.40;;
9384;SDS011;4732;49.340;10.886;2023-08-17T11:47:35;9.20;;;6.03;;
9384;SDS011;4732;49.340;10.886;2023-08-17T11:50:02;6.57;;;5.97;;
9384;SDS011;4732;49.340;10.886;2023-08-17T11:52:29;8.13;;;6.00;;
9384;SDS011;4732;49.340;10.886;2023-08-17T11:54:57;6.43;;;5.88;;
9384;SDS011;4732;49.340;10.886;2023-08-17T11:57:23;6.50;;;5.90;;
9384;SDS011;4732;49.340;10.886;2023-08-17T11:59:52;6.13;;;5.63;;
9384;SDS011;4732;49.340;10.886;2023-08-17T12:02:19;6.13;;;5.53;;
9384;SDS011;4732;49.340;10.886;2023-08-17T12:04:44;7.22;;;6.50;;
9384;SDS011;4732;49.340;10.886;2023-08-17T12:07:10;8.73;;;7.18;;
9384;SDS011;4732;49.340;10.886;2023-08-17T12:09:36;6.93;;;6.30;;
9384;SDS011;4732;49.340;10.886;2023-08-17T12:12:01;11.55;;;6.75;;
9384;SDS011;4732;49.340;10.886;2023-08-17T12:14:27;8.98;;;6.22;;
9384;SDS011;4732;49.340;10.886;2023-08-17T12:16:53;9.10;;;6.35;;
9384;SDS011;4732;49.340;10.886;2023-08-17T12:19:20;8.25;;;6.50;;
9384;SDS011;4732;49.340;10.886;2023-08-17T12:21:47;6.90;;;6.30;;
9384;SDS011;4732;49.340;10.886;2023-08-17T12:24:13;9.90;;;6.65;;
9384;SDS011;4732;49.340;10.886;2023-08-17T12:26:57;8.13;;;6.38;;
9384;SDS011;4732;49.340;10.886;2023-08-17T12:29:24;8.55;;;6.00;;
9384;SDS011;4732;49.340;10.886;2023-08-17T12:31:51;9.20;;;6.20;;
9384;SDS011;4732;49.340;10.886;2023-08-17T12:34:17;8.52;;;6.72;;
9384;SDS011;4732;49.340;10.886;2023-08-17T12:36:43;10.32;;;6.47;;
9384;SDS011;4732;49.340;10.886;2023-08-17T12:39:09;7.05;;;5.82;;
9384;SDS011;4732;49.340;10.886;2023-08-17T12:41:35;8.02;;;5.45;;
9384;SDS011;4732;49.340;10.886;2023-08-17T12:44:00;7.43;;;6.35;;
9384;SDS011;4732;49.340;10.886;2023-08-17T12:46:26;6.45;;;5.80;;
9384;SDS011;4732;49.340;10.886;2023-08-17T12:48:52;6.70;;;6.20;;
9384;SDS011;4732;49.340;10.886;2023-08-17T12:51:18;9.00;;;6.50;;
9384;SDS011;4732;49.340;10.886;2023-08-17T12:53:43;8.40;;;6.28;;
9384;SDS011;4732;49.340;10.886;2023-08-17T12:56:09;9.93;;;6.95;;
9384;SDS011;4732;49.340;10.886;2023-08-17T12:58:35;13.45;;;9.93;;
9384;SDS011;4732;49.340;10.886;2023-08-17T13:01:01;8.93;;;7.07;;
9384;SDS011;4732;49.340;10.886;2023-08-17T13:03:27;7.55;;;6.22;;
9384;SDS011;4732;49.340;10.886;2023-08-17T13:05:53;6.80;;;6.20;;
9384;SDS011;4732;49.340;10.886;2023-08-17T13:08:19;8.63;;;6.68;;
9384;SDS011;4732;49.340;10.886;2023-08-17T13:10:45;7.43;;;6.53;;
9384;SDS011;4732;49.340;10.886;2023-08-17T13:13:10;8.35;;;6.78;;
9384;SDS011;4732;49.340;10.886;2023-08-17T13:15:36;6.43;;;5.93;;
9384;SDS011;4732;49.340;10.886;2023-08-17T13:18:01;8.93;;;6.40;;
9384;SDS011;4732;49.340;10.886;2023-08-17T13:20:27;6.60;;;6.10;;
9384;SDS011;4732;49.340;10.886;2023-08-17T13:22:53;9.40;;;6.70;;
9384;SDS011;4732;49.340;10.886;2023-08-17T13:25:19;7.50;;;6.63;;
9384;SDS011;4732;49.340;10.886;2023-08-17T13:27:44;6.88;;;6.03;;
9384;SDS011;4732;49.340;10.886;2023-08-17T13:30:10;7.20;;;6.18;;
9384;SDS011;4732;49.340;10.886;2023-08-17T13:32:35;6.15;;;5.57;;
9384;SDS011;4732;49.340;10.886;2023-08-17T13:35:02;6.22;;;5.72;;
9384;SDS011;4732;49.340;10.886;2023-08-17T13:37:28;6.15;;;5.65;;
9384;SDS011;4732;49.340;10.886;2023-08-17T13:39:53;7.22;;;6.57;;
9384;SDS011;4732;49.340;10.886;2023-08-17T13:42:19;6.70;;;6.10;;
9384;SDS011;4732;49.340;10.886;2023-08-17T13:44:45;6.90;;;6.30;;
9384;SDS011;4732;49.340;10.886;2023-08-17T13:47:10;7.05;;;6.35;;
9384;SDS011;4732;49.340;10.886;2023-08-17T13:49:36;7.30;;;6.07;;
9384;SDS011;4732;49.340;10.886;2023-08-17T13:52:02;6.43;;;5.88;;
9384;SDS011;4732;49.340;10.886;2023-08-17T13:54:28;6.50;;;5.95;;
9384;SDS011;4732;49.340;10.886;2023-08-17T13:56:53;7.30;;;5.80;;
9384;SDS011;4732;49.340;10.886;2023-08-17T13:59:19;7.60;;;6.10;;
9384;SDS011;4732;49.340;10.886;2023-08-17T14:01:44;8.27;;;6.28;;
9384;SDS011;4732;49.340;10.886;2023-08-17T14:04:10;6.35;;;5.75;;
9384;SDS011;4732;49.340;10.886;2023-08-17T14:06:39;6.15;;;5.55;;
9384;SDS011;4732;49.340;10.886;2023-08-17T14:09:05;7.43;;;6.60;;
9384;SDS011;4732;49.340;10.886;2023-08-17T14:11:31;6.80;;;6.18;;
9384;SDS011;4732;49.340;10.886;2023-08-17T14:13:57;7.05;;;6.40;;
9384;SDS011;4732;49.340;10.886;2023-08-17T14:16:22;6.38;;;5.85;;
9384;SDS011;4732;49.340;10.886;2023-08-17T14:18:48;10.00;;;6.28;;
9384;SDS011;4732;49.340;10.886;2023-08-17T14:21:14;6.35;;;5.50;;
9384;SDS011;4732;49.340;10.886;2023-08-17T14:23:40;7.18;;;5.75;;
9384;SDS011;4732;49.340;10.886;2023-08-17T14:26:06;7.25;;;6.28;;
9384;SDS011;4732;49.340;10.886;2023-08-17T14:28:32;6.75;;;6.15;;
9384;SDS011;4732;49.340;10.886;2023-08-17T14:30:58;6.80;;;6.20;;
9384;SDS011;4732;49.340;10.886;2023-08-17T14:33:26;6.38;;;5.78;;
9384;SDS011;4732;49.340;10.886;2023-08-17T14:35:52;7.53;;;6.85;;
9384;SDS011;4732;49.340;10.886;2023-08-17T14:38:18;8.30;;;6.47;;
9384;SDS011;4732;49.340;10.886;2023-08-17T14:40:44;7.45;;;6.85;;
9384;SDS011;4732;49.340;10.886;2023-08-17T14:43:13;8.00;;;7.40;;
9384;SDS011;4732;49.340;10.886;2023-08-17T14:45:43;9.88;;;8.93;;
9384;SDS011;4732;49.340;10.886;2023-08-17T14:48:09;8.18;;;7.47;;
9384;SDS011;4732;49.340;10.886;2023-08-17T14:50:35;8.23;;;7.43;;
9384;SDS011;4732;49.340;10.886;2023-08-17T14:53:01;8.88;;;8.00;;
9384;SDS011;4732;49.340;10.886;2023-08-17T14:55:29;8.82;;;8.02;;
9384;SDS011;4732;49.340;10.886;2023-08-17T14:57:55;7.15;;;6.55;;
9384;SDS011;4732;49.340;10.886;2023-08-17T15:00:21;6.35;;;5.75;;
9384;SDS011;4732;49.340;10.886;2023-08-17T15:02:46;7.82;;;5.70;;
9384;SDS011;4732;49.340;10.886;2023-08-17T15:05:12;5.78;;;5.15;;
9384;SDS011;4732;49.340;10.886;2023-08-17T15:07:38;5.97;;;5.32;;
9384;SDS011;4732;49.340;10.886;2023-08-17T15:10:03;7.40;;;5.40;;
9384;SDS011;4732;49.340;10.886;2023-08-17T15:12:29;6.95;;;5.32;;
9384;SDS011;4732;49.340;10.886;2023-08-17T15:14:57;6.07;;;5.32;;
9384;SDS011;4732;49.340;10.886;2023-08-17T15:17:23;6.75;;;5.00;;
9384;SDS011;4732;49.340;10.886;2023-08-17T15:19:48;5.65;;;4.75;;
9384;SDS011;4732;49.340;10.886;2023-08-17T15:22:14;8.85;;;5.35;;
9384;SDS011;4732;49.340;10.886;2023-08-17T15:24:40;6.53;;;5.40;;
9384;SDS011;4732;49.340;10.886;2023-08-17T15:27:08;6.70;;;6.10;;
9384;SDS011;4732;49.340;10.886;2023-08-17T15:29:34;7.10;;;6.40;;
9384;SDS011;4732;49.340;10.886;2023-08-17T15:32:00;7.07;;;6.38;;
9384;SDS011;4732;49.340;10.886;2023-08-17T15:34:26;13.77;;;5.93;;
9384;SDS011;4732;49.340;10.886;2023-08-17T15:36:55;7.07;;;5.88;;
9384;SDS011;4732;49.340;10.886;2023-08-17T15:39:21;8.98;;;4.95;;
9384;SDS011;4732;49.340;10.886;2023-08-17T15:41:46;6.72;;;5.25;;
9384;SDS011;4732;49.340;10.886;2023-08-17T15:44:12;8.40;;;4.70;;
9384;SDS011;4732;49.340;10.886;2023-08-17T15:46:38;5.45;;;4.60;;
9384;SDS011;4732;49.340;10.886;2023-08-17T15:49:04;6.18;;;4.90;;
9384;SDS011;4732;49.340;10.886;2023-08-17T15:51:30;6.50;;;4.60;;
9384;SDS011;4732;49.340;10.886;2023-08-17T15:53:56;4.28;;;3.72;;
9384;SDS011;4732;49.340;10.886;2023-08-17T15:56:22;6.00;;;3.75;;
9384;SDS011;4732;49.340;10.886;2023-08-17T15:58:47;6.80;;;4.25;;
9384;SDS011;4732;49.340;10.886;2023-08-17T16:01:13;4.70;;;3.60;;
9384;SDS011;4732;49.340;10.886;2023-08-17T16:03:39;4.30;;;3.17;;
9384;SDS011;4732;49.340;10.886;2023-08-17T16:06:05;5.65;;;3.20;;
9384;SDS011;4732;49.340;10.886;2023-08-17T16:08:31;4.95;;;3.00;;
9384;SDS011;4732;49.340;10.886;2023-08-17T16:10:57;5.15;;;3.08;;
9384;SDS011;4732;49.340;10.886;2023-08-17T16:13:22;3.78;;;3.15;;
9384;SDS011;4732;49.340;10.886;2023-08-17T16:15:48;6.78;;;3.45;;
9384;SDS011;4732;49.340;10.886;2023-08-17T16:18:13;4.40;;;3.60;;
9384;SDS011;4732;49.340;10.886;2023-08-17T16:20:39;4.85;;;3.15;;
9384;SDS011;4732;49.340;10.886;2023-08-17T16:23:04;3.20;;;2.90;;
9384;SDS011;4732;49.340;10.886;2023-08-17T16:25:30;3.17;;;2.88;;
9384;SDS011;4732;49.340;10.886;2023-08-17T16:27:57;3.95;;;3.10;;
9384;SDS011;4732;49.340;10.886;2023-08-17T16:30:23;5.68;;;3.20;;
9384;SDS011;4732;49.340;10.886;2023-08-17T16:32:49;5.82;;;3.20;;
9384;SDS011;4732;49.340;10.886;2023-08-17T16:35:14;4.53;;;2.97;;
9384;SDS011;4732;49.340;10.886;2023-08-17T16:37:40;4.47;;;3.00;;
9384;SDS011;4732;49.340;10.886;2023-08-17T16:40:06;7.30;;;3.70;;
9384;SDS011;4732;49.340;10.886;2023-08-17T16:42:32;7.57;;;3.72;;
9384;SDS011;4732;49.340;10.886;2023-08-17T16:44:58;8.25;;;4.55;;
9384;SDS011;4732;49.340;10.886;2023-08-17T16:47:23;14.15;;;4.53;;
9384;SDS011;4732;49.340;10.886;2023-08-17T16:49:51;12.73;;;4.43;;
9384;SDS011;4732;49.340;10.886;2023-08-17T16:52:18;10.82;;;4.82;;
9384;SDS011;4732;49.340;10.886;2023-08-17T16:54:44;9.75;;;4.35;;
9384;SDS011;4732;49.340;10.886;2023-08-17T16:57:09;9.63;;;4.68;;
9384;SDS011;4732;49.340;10.886;2023-08-17T16:59:36;7.38;;;4.22;;
9384;SDS011;4732;49.340;10.886;2023-08-17T17:02:02;9.30;;;4.90;;
9384;SDS011;4732;49.340;10.886;2023-08-17T17:04:28;8.00;;;4.57;;
9384;SDS011;4732;49.340;10.886;2023-08-17T17:06:54;7.45;;;4.80;;
9384;SDS011;4732;49.340;10.886;2023-08-17T17:09:19;6.43;;;5.38;;
9384;SDS011;4732;49.340;10.886;2023-08-17T17:11:45;7.97;;;4.85;;
9384;SDS011;4732;49.340;10.886;2023-08-17T17:14:11;7.93;;;5.10;;
9384;SDS011;4732;49.340;10.886;2023-08-17T17:16:37;9.57;;;5.38;;
9384;SDS011;4732;49.340;10.886;2023-08-17T17:19:02;10.52;;;5.30;;
9384;SDS011;4732;49.340;10.886;2023-08-17T17:21:28;6.28;;;5.45;;
9384;SDS011;4732;49.340;10.886;2023-08-17T17:23:54;7.22;;;5.40;;
9384;SDS011;4732;49.340;10.886;2023-08-17T17:26:19;7.07;;;5.43;;
9384;SDS011;4732;49.340;10.886;2023-08-17T17:28:45;5.93;;;5.07;;
9384;SDS011;4732;49.340;10.886;2023-08-17T17:31:11;8.25;;;6.43;;
9384;SDS011;4732;49.340;10.886;2023-08-17T17:33:37;6.45;;;5.60;;
9384;SDS011;4732;49.340;10.886;2023-08-17T17:36:03;9.15;;;6.22;;
9384;SDS011;4732;49.340;10.886;2023-08-17T17:38:29;7.78;;;5.93;;
9384;SDS011;4732;49.340;10.886;2023-08-17T17:40:58;6.72;;;5.28;;
9384;SDS011;4732;49.340;10.886;2023-08-17T17:43:24;7.70;;;5.20;;
9384;SDS011;4732;49.340;10.886;2023-08-17T17:45:49;5.10;;;4.68;;
9384;SDS011;4732;49.340;10.886;2023-08-17T17:48:16;6.68;;;4.82;;
9384;SDS011;4732;49.340;10.886;2023-08-17T17:50:42;7.35;;;5.40;;
9384;SDS011;4732;49.340;10.886;2023-08-17T17:53:08;7.18;;;5.38;;
9384;SDS011;4732;49.340;10.886;2023-08-17T17:55:34;8.18;;;5.07;;
9384;SDS011;4732;49.340;10.886;2023-08-17T17:58:00;7.18;;;5.75;;
9384;SDS011;4732;49.340;10.886;2023-08-17T18:00:27;6.60;;;4.78;;
9384;SDS011;4732;49.340;10.886;2023-08-17T18:02:53;7.85;;;5.20;;
9384;SDS011;4732;49.340;10.886;2023-08-17T18:05:19;5.20;;;4.70;;
9384;SDS011;4732;49.340;10.886;2023-08-17T18:07:45;5.95;;;4.53;;
9384;SDS011;4732;49.340;10.886;2023-08-17T18:10:11;8.20;;;5.15;;
9384;SDS011;4732;49.340;10.886;2023-08-17T18:12:37;5.78;;;5.10;;
9384;SDS011;4732;49.340;10.886;2023-08-17T18:15:03;8.80;;;5.95;;
9384;SDS011;4732;49.340;10.886;2023-08-17T18:17:29;8.25;;;6.13;;
9384;SDS011;4732;49.340;10.886;2023-08-17T18:19:55;7.70;;;5.55;;
9384;SDS011;4732;49.340;10.886;2023-08-17T18:22:21;6.90;;;6.18;;
9384;SDS011;4732;49.340;10.886;2023-08-17T18:24:47;7.25;;;6.18;;
9384;SDS011;4732;49.340;10.886;2023-08-17T18:27:15;8.20;;;6.45;;